createdAt,value
2022-09-09T00:01:16.586Z,75.40
2022-09-09T00:04:04.001Z,75.40
2022-09-09T00:06:49.290Z,75.40
2022-09-09T00:09:15.841Z,75.40
2022-09-09T00:11:53.726Z,75.30
2022-09-09T00:14:32.699Z,75.30
2022-09-09T00:17:03.070Z,75.30
2022-09-09T00:19:34.280Z,75.30
2022-09-09T00:22:07.060Z,75.30
2022-09-09T00:24:42.722Z,75.30
2022-09-09T00:27:13.336Z,75.30
2022-09-09T00:29:46.453Z,75.20
2022-09-09T00:32:22.424Z,75.40
2022-09-09T00:34:51.981Z,75.20
2022-09-09T00:37:19.790Z,75.20
2022-09-09T00:39:50.640Z,75.10
2022-09-09T00:42:27.751Z,75.10
2022-09-09T00:44:57.455Z,75.30
2022-09-09T00:47:43.444Z,75.20
2022-09-09T00:50:30.718Z,75.20
2022-09-09T00:53:06.921Z,75.10
2022-09-09T00:55:42.673Z,75.10
2022-09-09T00:58:09.907Z,75.10
2022-09-09T01:00:41.190Z,75.10
2022-09-09T01:03:25.409Z,76.00
2022-09-09T01:06:10.675Z,75.00
2022-09-09T01:08:43.988Z,75.00
2022-09-09T01:11:21.089Z,75.00
2022-09-09T01:13:48.835Z,75.00
2022-09-09T01:16:15.567Z,75.00
2022-09-09T01:18:45.859Z,75.00
2022-09-09T01:21:15.243Z,75.00
2022-09-09T01:24:02.220Z,75.00
2022-09-09T01:26:36.126Z,75.00
2022-09-09T01:29:02.843Z,75.60
2022-09-09T01:31:32.382Z,75.20
2022-09-09T01:33:59.107Z,74.90
2022-09-09T01:36:29.102Z,74.80
2022-09-09T01:38:55.854Z,74.70
2022-09-09T01:41:22.594Z,74.80
2022-09-09T01:43:49.677Z,74.70
2022-09-09T01:46:17.423Z,74.80
2022-09-09T01:48:44.339Z,74.70
2022-09-09T01:51:14.054Z,74.70
2022-09-09T01:53:42.147Z,75.30
2022-09-09T01:56:14.986Z,74.70
2022-09-09T01:58:48.566Z,74.70
2022-09-09T02:01:30.448Z,74.70
2022-09-09T02:03:58.038Z,74.70
2022-09-09T02:06:38.696Z,74.70
2022-09-09T02:09:06.721Z,74.60
2022-09-09T02:11:34.001Z,74.60
2022-09-09T02:14:11.490Z,74.60
2022-09-09T02:16:58.510Z,74.60
2022-09-09T02:19:30.397Z,74.60
2022-09-09T02:21:58.930Z,74.60
2022-09-09T02:24:26.039Z,74.60
2022-09-09T02:26:54.707Z,74.60
2022-09-09T02:29:24.808Z,74.60
2022-09-09T02:31:52.304Z,74.70
2022-09-09T02:34:19.970Z,74.50
2022-09-09T02:36:46.987Z,74.60
2022-09-09T02:39:14.039Z,74.50
2022-09-09T02:41:41.697Z,74.60
2022-09-09T02:44:12.203Z,74.40
2022-09-09T02:46:48.666Z,74.40
2022-09-09T02:49:41.644Z,74.40
2022-09-09T02:52:09.401Z,74.30
2022-09-09T02:54:38.772Z,74.30
2022-09-09T02:57:20.595Z,74.20
2022-09-09T02:59:47.647Z,74.30
2022-09-09T03:02:14.459Z,74.40
2022-09-09T03:04:41.632Z,74.30
2022-09-09T03:07:08.494Z,74.30
2022-09-09T03:09:35.107Z,74.30
2022-09-09T03:12:01.998Z,74.40
2022-09-09T03:14:28.589Z,74.30
2022-09-09T03:16:55.539Z,74.30
2022-09-09T03:19:22.456Z,74.30
2022-09-09T03:21:49.038Z,74.30
2022-09-09T03:24:15.765Z,74.30
2022-09-09T03:26:45.724Z,74.30
2022-09-09T03:29:13.361Z,73.30
2022-09-09T03:31:40.238Z,73.90
2022-09-09T03:34:07.213Z,74.30
2022-09-09T03:36:33.937Z,74.20
2022-09-09T03:39:01.350Z,74.20
2022-09-09T03:41:28.205Z,74.30
2022-09-09T03:43:54.889Z,74.30
2022-09-09T03:46:22.376Z,74.10
2022-09-09T03:48:49.006Z,74.30
2022-09-09T03:51:17.105Z,74.10
2022-09-09T03:53:44.126Z,74.10
2022-09-09T03:56:11.146Z,74.20
2022-09-09T03:58:38.237Z,74.20
2022-09-09T04:01:09.939Z,74.20
2022-09-09T04:03:36.747Z,74.90
2022-09-09T04:06:04.498Z,74.10
2022-09-09T04:08:32.751Z,74.00
2022-09-09T04:10:59.490Z,73.90
2022-09-09T04:13:26.552Z,73.80
2022-09-09T04:15:54.365Z,73.70
2022-09-09T04:18:21.360Z,73.60
2022-09-09T04:20:49.546Z,73.40
2022-09-09T04:23:16.961Z,73.40
2022-09-09T04:25:45.675Z,73.30
2022-09-09T04:28:12.292Z,73.30
2022-09-09T04:30:40.833Z,73.30
2022-09-09T04:33:07.958Z,73.30
2022-09-09T04:35:35.106Z,73.40
2022-09-09T04:38:03.587Z,73.40
2022-09-09T04:40:30.847Z,73.30
2022-09-09T04:43:00.793Z,73.30
2022-09-09T04:45:27.796Z,73.30
2022-09-09T04:47:54.759Z,73.30
2022-09-09T04:50:21.454Z,73.30
2022-09-09T04:52:48.295Z,73.30
2022-09-09T04:55:15.007Z,73.30
2022-09-09T04:57:41.758Z,73.40
2022-09-09T05:00:08.863Z,73.40
2022-09-09T05:02:38.889Z,73.30
2022-09-09T05:05:06.071Z,73.40
2022-09-09T05:07:33.753Z,73.40
2022-09-09T05:10:00.430Z,73.40
2022-09-09T05:12:27.142Z,73.50
2022-09-09T05:14:53.722Z,73.50
2022-09-09T05:17:20.482Z,73.50
2022-09-09T05:19:47.191Z,72.80
2022-09-09T05:22:13.901Z,73.50
2022-09-09T05:24:40.558Z,73.50
2022-09-09T05:27:07.183Z,73.50
2022-09-09T05:29:36.744Z,73.50
2022-09-09T05:32:04.034Z,73.50
2022-09-09T05:34:30.686Z,73.40
2022-09-09T05:36:57.292Z,73.40
2022-09-09T05:39:23.965Z,73.30
2022-09-09T05:41:50.988Z,73.30
2022-09-09T05:44:17.574Z,73.40
2022-09-09T05:46:45.762Z,73.40
2022-09-09T05:49:16.290Z,72.80
2022-09-09T05:51:44.104Z,73.50
2022-09-09T05:54:10.842Z,73.40
2022-09-09T05:56:37.503Z,73.40
2022-09-09T05:59:04.275Z,73.50
2022-09-09T06:01:32.689Z,73.50
2022-09-09T06:03:59.478Z,73.50
2022-09-09T06:06:27.744Z,73.50
2022-09-09T06:08:55.504Z,73.50
2022-09-09T06:11:23.219Z,72.50
2022-09-09T06:13:52.606Z,73.40
2022-09-09T06:16:20.137Z,73.30
2022-09-09T06:18:46.811Z,73.40
2022-09-09T06:21:17.607Z,73.40
2022-09-09T06:23:45.502Z,73.40
2022-09-09T06:26:13.294Z,73.50
2022-09-09T06:28:40.137Z,73.80
2022-09-09T06:31:08.177Z,73.50
2022-09-09T06:33:35.978Z,73.50
2022-09-09T06:36:04.622Z,73.60
2022-09-09T06:38:31.632Z,73.50
2022-09-09T06:40:59.934Z,73.50
2022-09-09T06:43:27.584Z,73.70
2022-09-09T06:45:55.360Z,73.70
2022-09-09T06:48:22.059Z,73.60
2022-09-09T06:50:50.808Z,73.70
2022-09-09T06:53:20.065Z,73.70
2022-09-09T06:55:46.765Z,73.70
2022-09-09T06:58:13.490Z,73.70
2022-09-09T07:00:40.242Z,73.70
2022-09-09T07:03:07.167Z,73.80
2022-09-09T07:05:33.755Z,74.00
2022-09-09T07:08:00.406Z,73.90
2022-09-09T07:10:27.011Z,73.90
2022-09-09T07:12:54.198Z,73.90
2022-09-09T07:15:20.944Z,74.10
2022-09-09T07:17:47.694Z,74.10
2022-09-09T07:20:25.570Z,74.00
2022-09-09T07:22:55.640Z,74.10
2022-09-09T07:25:22.990Z,74.30
2022-09-09T07:27:50.317Z,74.20
2022-09-09T07:30:21.994Z,74.40
2022-09-09T07:32:52.738Z,74.40
2022-09-09T07:35:19.368Z,74.40
2022-09-09T07:37:50.692Z,74.40
2022-09-09T07:40:17.769Z,74.30
2022-09-09T07:42:44.434Z,74.50
2022-09-09T07:45:11.066Z,74.50
2022-09-09T07:47:37.728Z,74.50
2022-09-09T07:50:05.184Z,74.50
2022-09-09T07:52:31.879Z,74.60
2022-09-09T07:55:01.325Z,74.50
2022-09-09T07:57:29.306Z,74.50
2022-09-09T07:59:57.388Z,74.60
2022-09-09T08:02:24.805Z,74.80
2022-09-09T08:04:52.606Z,74.80
2022-09-09T08:07:19.306Z,74.80
2022-09-09T08:09:46.333Z,74.90
2022-09-09T08:12:14.088Z,75.00
2022-09-09T08:14:41.158Z,75.20
2022-09-09T08:17:07.756Z,75.20
2022-09-09T08:19:36.938Z,75.10
2022-09-09T08:22:03.997Z,75.20
2022-09-09T08:24:30.588Z,75.30
2022-09-09T08:26:57.849Z,74.70
2022-09-09T08:29:24.723Z,75.30
2022-09-09T08:31:53.802Z,75.20
2022-09-09T08:34:21.047Z,75.30
2022-09-09T08:36:48.755Z,75.30
2022-09-09T08:39:17.209Z,75.20
2022-09-09T08:41:53.592Z,75.20
2022-09-09T08:44:34.109Z,75.30
2022-09-09T08:47:07.401Z,75.20
2022-09-09T08:49:57.536Z,75.30
2022-09-09T08:52:32.241Z,75.30
2022-09-09T08:55:11.576Z,75.30
2022-09-09T08:57:39.813Z,75.30
2022-09-09T09:00:09.874Z,75.30
2022-09-09T09:02:46.935Z,75.30
2022-09-09T09:05:21.162Z,75.40
2022-09-09T09:07:48.281Z,75.30
2022-09-09T09:10:41.199Z,75.40
2022-09-09T09:13:14.358Z,75.30
2022-09-09T09:15:42.838Z,75.50
2022-09-09T09:18:13.493Z,75.50
2022-09-09T09:21:19.821Z,75.50
2022-09-09T09:23:49.844Z,75.40
2022-09-09T09:26:16.642Z,75.50
2022-09-09T09:28:43.302Z,75.50
2022-09-09T09:31:11.828Z,75.60
2022-09-09T09:33:45.595Z,75.60
2022-09-09T09:36:14.211Z,75.60
2022-09-09T09:41:32.080Z,75.60
2022-09-09T09:43:59.362Z,75.50
2022-09-09T09:46:26.747Z,75.50
2022-09-09T09:49:00.950Z,75.50
2022-09-09T09:51:28.779Z,75.50
2022-09-09T09:54:06.711Z,75.50
2022-09-09T09:56:33.809Z,75.40
2022-09-09T09:59:03.696Z,75.60
2022-09-09T10:01:36.616Z,75.60
2022-09-09T10:04:16.590Z,75.50
2022-09-09T10:06:43.319Z,75.60
2022-09-09T10:09:22.157Z,75.60
2022-09-09T10:11:53.406Z,75.50
2022-09-09T10:14:21.676Z,75.60
2022-09-09T10:16:49.439Z,75.60
2022-09-09T10:19:30.836Z,75.50
2022-09-09T10:22:00.529Z,75.60
2022-09-09T10:24:39.464Z,75.60
2022-09-09T10:27:13.782Z,75.60
2022-09-09T10:30:01.279Z,75.50
2022-09-09T10:32:47.764Z,75.50
2022-09-09T10:35:30.386Z,75.50
2022-09-09T10:38:06.391Z,75.30
2022-09-09T10:40:39.924Z,75.40
2022-09-09T10:43:22.044Z,75.40
2022-09-09T10:46:04.970Z,75.50
2022-09-09T10:48:36.719Z,75.30
2022-09-09T10:51:22.050Z,75.30
2022-09-09T10:53:51.858Z,75.50
2022-09-09T10:56:19.694Z,75.50
2022-09-09T10:58:50.278Z,75.60
2022-09-09T11:01:19.854Z,75.40
2022-09-09T11:03:51.135Z,75.50
2022-09-09T11:06:20.246Z,75.40
2022-09-09T11:08:47.366Z,75.50
2022-09-09T11:11:20.673Z,75.60
2022-09-09T11:13:53.616Z,75.60
2022-09-09T11:16:20.288Z,75.50
2022-09-09T11:18:47.504Z,75.50
2022-09-09T11:21:24.011Z,75.50
2022-09-09T11:23:53.893Z,75.50
2022-09-09T11:26:26.086Z,75.60
2022-09-09T11:29:04.949Z,75.60
2022-09-09T11:31:50.668Z,75.60
2022-09-09T11:34:20.121Z,75.60
2022-09-09T11:37:02.366Z,75.60
2022-09-09T11:39:31.827Z,75.60
2022-09-09T11:42:08.888Z,75.70
2022-09-09T11:44:35.578Z,75.70
2022-09-09T11:47:02.234Z,75.80
2022-09-09T11:49:31.034Z,75.80
2022-09-09T11:51:57.889Z,75.80
2022-09-09T11:54:32.279Z,75.70
2022-09-09T11:56:59.125Z,75.80
2022-09-09T11:59:30.899Z,75.80
2022-09-09T12:01:59.312Z,75.80
2022-09-09T12:04:26.484Z,75.80
2022-09-09T12:07:22.392Z,75.80
2022-09-09T12:09:57.613Z,75.80
2022-09-09T12:12:26.566Z,76.00
2022-09-09T12:14:56.070Z,76.00
2022-09-09T12:17:24.610Z,76.00
2022-09-09T12:20:10.747Z,76.00
2022-09-09T12:22:41.233Z,76.10
2022-09-09T12:25:24.977Z,75.80
2022-09-09T12:27:58.570Z,75.90
2022-09-09T12:30:30.371Z,76.20
2022-09-09T12:33:02.156Z,75.90
2022-09-09T12:35:29.953Z,76.00
2022-09-09T12:37:59.162Z,76.00
2022-09-09T12:40:26.948Z,75.90
2022-09-09T12:42:53.878Z,76.20
2022-09-09T12:45:21.943Z,76.00
2022-09-09T12:47:51.446Z,75.90
2022-09-09T12:50:38.329Z,75.80
2022-09-09T12:53:10.039Z,75.80
2022-09-09T12:55:38.608Z,75.80
2022-09-09T12:58:06.968Z,75.90
2022-09-09T13:00:37.059Z,75.90
2022-09-09T13:03:15.622Z,75.90
2022-09-09T13:05:42.290Z,75.90
2022-09-09T13:08:13.070Z,75.90
2022-09-09T13:11:02.500Z,76.00
2022-09-09T13:13:31.046Z,75.80
2022-09-09T13:15:58.772Z,75.80
2022-09-09T13:18:30.191Z,75.80
2022-09-09T13:20:58.949Z,76.00
2022-09-09T13:23:28.115Z,75.90
2022-09-09T13:26:02.178Z,75.90
2022-09-09T13:28:34.215Z,75.90
2022-09-09T13:31:05.885Z,76.00
2022-09-09T13:33:34.405Z,75.80
2022-09-09T13:36:04.068Z,75.90
2022-09-09T13:38:33.031Z,75.70
2022-09-09T13:41:04.308Z,76.00
2022-09-09T13:43:32.781Z,75.80
2022-09-09T13:46:19.366Z,76.20
2022-09-09T13:48:54.633Z,76.40
2022-09-09T13:51:30.622Z,75.80
2022-09-09T13:53:57.858Z,75.80
2022-09-09T13:56:24.561Z,75.80
2022-09-09T13:58:51.175Z,75.80
2022-09-09T14:01:17.967Z,75.90
2022-09-09T14:03:44.607Z,75.90
2022-09-09T14:06:11.904Z,75.80
2022-09-09T14:08:39.689Z,75.80
2022-09-09T14:11:06.539Z,75.70
2022-09-09T14:13:33.517Z,75.80
2022-09-09T14:16:00.196Z,76.00
2022-09-09T14:18:26.914Z,75.90
2022-09-09T14:20:53.554Z,75.40
2022-09-09T14:23:20.177Z,75.60
2022-09-09T14:25:47.547Z,75.60
2022-09-09T14:28:14.552Z,75.60
2022-09-09T14:30:42.193Z,75.70
2022-09-09T14:33:10.476Z,75.70
2022-09-09T14:35:37.280Z,75.60
2022-09-09T14:38:04.443Z,75.80
2022-09-09T14:40:31.675Z,75.60
2022-09-09T14:42:58.290Z,75.70
2022-09-09T14:45:25.823Z,75.70
2022-09-09T14:47:52.969Z,75.70
2022-09-09T14:50:20.495Z,75.70
2022-09-09T14:52:47.867Z,75.90
2022-09-09T14:55:16.265Z,75.80
2022-09-09T14:57:43.230Z,76.00
2022-09-09T15:00:10.879Z,76.10
2022-09-09T15:02:37.722Z,76.40
2022-09-09T15:05:05.339Z,76.30
2022-09-09T15:07:32.942Z,76.40
2022-09-09T15:09:59.610Z,76.90
2022-09-09T15:12:26.237Z,76.60
2022-09-09T15:14:54.627Z,76.80
2022-09-09T15:17:21.578Z,76.70
2022-09-09T15:19:48.269Z,76.40
2022-09-09T15:22:15.214Z,76.40
2022-09-09T15:24:41.819Z,76.50
2022-09-09T15:27:08.487Z,76.20
2022-09-09T15:29:35.130Z,76.20
2022-09-09T15:32:01.798Z,76.20
2022-09-09T15:34:28.409Z,76.40
2022-09-09T15:36:56.516Z,76.20
2022-09-09T15:39:23.621Z,76.20
2022-09-09T15:41:50.294Z,76.40
2022-09-09T15:44:17.106Z,76.50
2022-09-09T15:46:49.349Z,76.40
2022-09-09T15:49:20.153Z,76.40
2022-09-09T15:51:47.835Z,76.30
2022-09-09T15:54:19.023Z,77.40
2022-09-09T15:56:47.597Z,76.30
2022-09-09T15:59:15.752Z,76.30
2022-09-09T16:01:43.222Z,76.20
2022-09-09T16:04:10.603Z,76.30
2022-09-09T16:06:37.551Z,76.20
2022-09-09T16:09:05.487Z,76.20
2022-09-09T16:11:33.861Z,76.10
2022-09-09T16:14:00.859Z,76.10
2022-09-09T16:16:28.741Z,76.10
2022-09-09T16:18:56.646Z,76.10
2022-09-09T16:21:25.139Z,76.00
2022-09-09T16:23:52.690Z,75.90
2022-09-09T16:26:19.473Z,76.20
2022-09-09T16:28:47.484Z,76.00
2022-09-09T16:31:15.447Z,76.00
2022-09-09T16:33:42.661Z,76.10
2022-09-09T16:36:11.315Z,76.10
2022-09-09T16:38:38.066Z,76.00
2022-09-09T16:41:06.713Z,76.00
2022-09-09T16:43:39.668Z,76.00
2022-09-09T16:46:19.548Z,76.00
2022-09-09T16:48:47.025Z,75.90
2022-09-09T16:51:17.746Z,76.00
2022-09-09T16:53:44.362Z,76.00
2022-09-09T16:56:12.210Z,76.00
2022-09-09T16:58:39.126Z,75.90
2022-09-09T17:01:06.282Z,76.00
2022-09-09T17:03:33.548Z,76.00
2022-09-09T17:06:03.014Z,75.90
2022-09-09T17:08:30.594Z,75.90
2022-09-09T17:10:57.799Z,76.30
2022-09-09T17:13:24.789Z,75.90
2022-09-09T17:15:51.474Z,75.90
2022-09-09T17:18:18.283Z,75.90
2022-09-09T17:20:47.174Z,75.90
2022-09-09T17:23:17.090Z,75.90
2022-09-09T17:25:44.226Z,75.90
2022-09-09T17:28:10.802Z,75.90
2022-09-09T17:30:37.790Z,75.90
2022-09-09T17:33:05.315Z,75.80
2022-09-09T17:35:32.397Z,75.90
2022-09-09T17:37:59.667Z,76.00
2022-09-09T17:40:26.395Z,76.00
2022-09-09T17:42:53.027Z,76.10
2022-09-09T17:45:20.405Z,76.00
2022-09-09T17:47:47.094Z,75.90
2022-09-09T17:50:13.804Z,75.80
2022-09-09T17:52:41.635Z,75.80
2022-09-09T17:55:10.150Z,75.60
2022-09-09T17:57:36.814Z,75.60
2022-09-09T18:00:06.330Z,75.60
2022-09-09T18:02:32.977Z,75.70
2022-09-09T18:05:00.266Z,75.70
2022-09-09T18:07:26.935Z,75.70
2022-09-09T18:09:53.527Z,75.60
2022-09-09T18:12:20.111Z,75.80
2022-09-09T18:14:48.465Z,75.70
2022-09-09T18:17:15.312Z,75.70
2022-09-09T18:19:41.955Z,76.40
2022-09-09T18:22:08.618Z,75.70
2022-09-09T18:24:36.326Z,75.70
2022-09-09T18:27:03.012Z,75.70
2022-09-09T18:29:29.933Z,75.80
2022-09-09T18:31:56.723Z,75.80
2022-09-09T18:34:25.569Z,75.70
2022-09-09T18:36:54.504Z,75.70
2022-09-09T18:39:22.079Z,76.90
2022-09-09T18:41:50.279Z,75.70
2022-09-09T18:44:17.971Z,75.70
2022-09-09T18:46:45.178Z,75.80
2022-09-09T18:49:12.318Z,76.50
2022-09-09T18:51:41.093Z,76.50
2022-09-09T18:54:11.254Z,75.70
2022-09-09T18:56:37.923Z,75.70
2022-09-09T18:59:06.380Z,75.70
2022-09-09T19:01:35.689Z,75.70
2022-09-09T19:04:03.447Z,75.70
2022-09-09T19:06:31.372Z,75.60
2022-09-09T19:09:02.855Z,75.70
2022-09-09T19:11:30.610Z,75.70
2022-09-09T19:13:58.806Z,75.80
2022-09-09T19:16:29.296Z,76.20
2022-09-09T19:18:58.055Z,75.80
2022-09-09T19:21:26.082Z,75.70
2022-09-09T19:23:59.077Z,75.70
2022-09-09T19:26:26.181Z,75.70
2022-09-09T19:28:52.919Z,75.70
2022-09-09T19:31:20.438Z,75.70
2022-09-09T19:33:47.930Z,76.40
2022-09-09T19:36:17.814Z,75.70
2022-09-09T19:38:45.731Z,75.60
2022-09-09T19:41:13.910Z,75.70
2022-09-09T19:43:40.802Z,75.70
2022-09-09T19:46:09.097Z,75.70
2022-09-09T19:48:37.482Z,75.60
2022-09-09T19:51:04.901Z,75.50
2022-09-09T19:53:36.028Z,75.70
2022-09-09T19:56:05.636Z,75.70
2022-09-09T19:58:34.411Z,75.60
2022-09-09T20:01:14.672Z,75.50
2022-09-09T20:03:43.990Z,75.50
2022-09-09T20:06:13.402Z,75.50
2022-09-09T20:08:40.595Z,75.50
2022-09-09T20:11:07.798Z,75.60
2022-09-09T20:13:35.773Z,75.50
2022-09-09T20:16:03.973Z,75.50
2022-09-09T20:18:32.455Z,75.50
2022-09-09T20:21:00.523Z,75.50
2022-09-09T20:23:28.089Z,75.50
2022-09-09T20:25:55.104Z,75.50
2022-09-09T20:28:22.438Z,76.30
2022-09-09T20:30:51.403Z,75.40
2022-09-09T20:33:18.497Z,75.40
2022-09-09T20:35:45.600Z,75.40
2022-09-09T20:38:12.189Z,75.40
2022-09-09T20:40:39.546Z,75.30
2022-09-09T20:43:06.587Z,75.30
2022-09-09T20:45:38.093Z,75.30
2022-09-09T20:48:05.163Z,75.20
2022-09-09T20:50:32.432Z,75.30
2022-09-09T20:52:59.222Z,75.20
2022-09-09T20:55:26.486Z,75.20
2022-09-09T20:57:53.095Z,75.20
2022-09-09T21:00:19.734Z,75.30
2022-09-09T21:02:46.334Z,75.30
2022-09-09T21:05:13.104Z,75.20
2022-09-09T21:07:39.728Z,75.30
2022-09-09T21:10:06.642Z,75.30
2022-09-09T21:12:33.246Z,75.30
2022-09-09T21:15:00.781Z,75.30
2022-09-09T21:17:27.418Z,75.30
2022-09-09T21:19:57.208Z,75.30
2022-09-09T21:22:24.077Z,75.30
2022-09-09T21:24:50.903Z,75.20
2022-09-09T21:27:17.552Z,75.20
2022-09-09T21:29:44.168Z,75.20
2022-09-09T21:32:10.773Z,75.20
2022-09-09T21:34:37.355Z,75.20
2022-09-09T21:37:04.033Z,75.20
2022-09-09T21:39:30.655Z,75.20
2022-09-09T21:41:58.947Z,75.20
2022-09-09T21:44:26.732Z,75.10
2022-09-09T21:46:53.383Z,75.00
2022-09-09T21:49:19.991Z,75.00
2022-09-09T21:51:47.571Z,75.20
2022-09-09T21:54:14.187Z,75.10
2022-09-09T21:56:40.793Z,73.30
2022-09-09T21:59:08.118Z,75.00
2022-09-09T22:01:34.914Z,75.20
2022-09-09T22:04:01.839Z,75.00
2022-09-09T22:06:28.481Z,75.00
2022-09-09T22:08:57.224Z,75.00
2022-09-09T22:11:24.782Z,75.00
2022-09-09T22:13:53.352Z,75.00
2022-09-09T22:16:21.107Z,75.00
2022-09-09T22:18:52.122Z,75.00
2022-09-09T22:21:19.022Z,75.00
2022-09-09T22:23:50.646Z,75.00
2022-09-09T22:26:17.238Z,75.10
2022-09-09T22:28:43.854Z,74.90
2022-09-09T22:31:10.481Z,75.00
2022-09-09T22:33:37.305Z,75.00
2022-09-09T22:36:04.811Z,74.90
2022-09-09T22:38:36.511Z,74.90
2022-09-09T22:41:04.095Z,74.90
2022-09-09T22:43:32.939Z,75.00
2022-09-09T22:46:00.027Z,74.90
2022-09-09T22:48:26.794Z,75.00
2022-09-09T22:50:53.766Z,75.00
2022-09-09T22:53:20.359Z,75.00
2022-09-09T22:55:59.391Z,74.90
2022-09-09T22:58:26.663Z,74.90
2022-09-09T23:00:53.305Z,74.90
2022-09-09T23:03:22.617Z,74.90
2022-09-09T23:05:57.559Z,74.90
2022-09-09T23:08:34.527Z,74.90
2022-09-09T23:11:03.979Z,74.80
2022-09-09T23:13:33.115Z,74.80
2022-09-09T23:16:00.968Z,74.80
2022-09-09T23:18:28.985Z,74.80
2022-09-09T23:20:57.573Z,74.80
2022-09-09T23:23:25.046Z,74.70
2022-09-09T23:25:51.631Z,74.80
2022-09-09T23:28:18.282Z,74.70
2022-09-09T23:30:44.925Z,74.70
2022-09-09T23:33:11.527Z,74.70
2022-09-09T23:35:38.578Z,74.70
2022-09-09T23:38:05.221Z,74.70
2022-09-09T23:40:31.847Z,74.80
2022-09-09T23:42:58.492Z,74.80
2022-09-09T23:45:25.116Z,74.80
2022-09-09T23:47:51.726Z,75.00
2022-09-09T23:50:19.086Z,74.70
2022-09-09T23:52:46.314Z,74.80
2022-09-09T23:55:12.919Z,74.70
2022-09-09T23:57:39.871Z,74.70
